Amr R — XUAX5 — position and weather

sailwx.info

Track history (hours):
 
Tides and Currents Weather Stations Pressure Air Temp Water Temp Dewpoint Dewpoint Depression Visibility Wind Speed Wind Dir Waves Ship Positions

Amr R

Last reported at 2015-Jun-28 18:34 UTC. Time now 2015-Jul-31 21:29 UTC.
Position N 36°44' E 026°50'.
Warning: this ship's position is 33 days out of date.

Length 130 m; draft 7.3 m.

Type: Cargo ship. MMSI: 514427000.

Date/timePositionNaut miles runAvg speedWind from/ knotsBaromVisibWave heightAir tempDewpointWater temp
2015-Jun-28 18:34N 36°44' E 026°50'9 8.7
2015-Jun-28 17:34N 36°52' E 026°43'9 8.6
2015-Jun-28 16:31N 36°59' E 026°37'8 8.5
2015-Jun-28 15:33N 37°05' E 026°31'9 8.5
2015-Jun-28 14:33N 37°11' E 026°23'9 8.5
2015-Jun-28 13:33N 37°17' E 026°15'17 8.3
2015-Jun-28 11:28N 37°28' E 025°58'7 8.1
2015-Jun-28 10:33N 37°34' E 025°54'277 7.3
2015-Jun-26 20:34N 41°21' E 029°20'2 1.9
2015-Jun-26 19:23N 41°22' E 029°22'246 4.9
2015-Jun-24 17:21N 43°15' E 034°18'7 8.5
2015-Jun-24 16:33N 43°18' E 034°26'10 8.5
2015-Jun-24 15:22N 43°23' E 034°38'6 7.6
2015-Jun-24 14:33N 43°27' E 034°46'10 8.2
2015-Jun-24 13:19N 43°32' E 034°58'6 8.1
2015-Jun-24 12:33N 43°35' E 035°05'8 7.9
2015-Jun-24 11:33N 43°39' E 035°14'112 8.6
2015-Jun-23 22:32N 44°30' E 037°34'8 8.5
2015-Jun-23 21:33N 44°34' E 037°44'8 7.8
2015-Jun-23 20:33N 44°40' E 037°50'4 4.0
2015-Jun-23 19:33N 44°44' E 037°47'0 0.0
2015-Jun-23 19:05N 44°44' E 037°47'0 0.0
2015-Jun-22 19:30N 44°44' E 037°47'0 0.0
2015-Jun-22 18:30N 44°44' E 037°47'0 0.0
2015-Jun-22 17:24N 44°44' E 037°47'0 0.0
2015-Jun-22 16:30N 44°44' E 037°47'0 0.0
2015-Jun-22 15:30N 44°44' E 037°47'0 0.0
2015-Jun-22 14:30N 44°44' E 037°47'0 0.0
2015-Jun-22 13:30N 44°44' E 037°47'0 0.0
2015-Jun-22 12:30N 44°44' E 037°47'0 0.0
2015-Jun-22 11:30N 44°44' E 037°47'0 0.0
2015-Jun-22 10:30N 44°44' E 037°47'0 0.0
2015-Jun-22 09:30N 44°44' E 037°47'0 0.0
2015-Jun-22 08:30N 44°44' E 037°47'0 0.0
2015-Jun-22 07:30N 44°44' E 037°47'0 0.0
2015-Jun-22 06:30N 44°44' E 037°47'0 0.0
2015-Jun-22 05:30N 44°44' E 037°47'0 0.0
2015-Jun-22 04:30N 44°44' E 037°47'0 0.0
2015-Jun-22 03:30N 44°44' E 037°47'0 0.0
2015-Jun-22 02:30N 44°44' E 037°47'0 0.0
2015-Jun-22 01:30N 44°44' E 037°47'0 0.0
2015-Jun-22 00:30N 44°44' E 037°47'0 0.0
2015-Jun-21 23:30N 44°44' E 037°47'0 0.0
2015-Jun-21 22:30N 44°44' E 037°47'0 0.0
2015-Jun-21 21:30N 44°44' E 037°47'0 0.0
2015-Jun-21 20:30N 44°44' E 037°47'0 0.0
2015-Jun-21 19:30N 44°44' E 037°47'0 0.0
2015-Jun-21 18:30N 44°44' E 037°47'0 0.0
2015-Jun-21 17:30N 44°44' E 037°47'0 0.0
2015-Jun-21 16:30N 44°44' E 037°47'0 0.0
2015-Jun-21 15:30N 44°44' E 037°47'0 0.0
2015-Jun-21 14:30N 44°44' E 037°47'0 0.0
2015-Jun-21 13:30N 44°44' E 037°47'0 0.0
2015-Jun-21 12:30N 44°44' E 037°47'0 0.0
2015-Jun-21 11:30N 44°44' E 037°47'0 0.0
2015-Jun-21 10:30N 44°44' E 037°47'0 0.0
2015-Jun-21 09:30N 44°44' E 037°47'0 0.0
2015-Jun-21 08:30N 44°44' E 037°47'3 3.1
2015-Jun-21 07:33N 44°41' E 037°49'8 7.5
2015-Jun-21 06:33N 44°34' E 037°48'8 8.4
2015-Jun-21 05:33N 44°28' E 037°39'6 5.3
2015-Jun-21 04:26N 44°24' E 037°33'0 0.3
2015-Jun-21 03:30N 44°24' E 037°33'0 0.4
2015-Jun-21 02:33N 44°24' E 037°32'1 0.5
2015-Jun-21 01:17N 44°24' E 037°31'3 1.4
2015-Jun-20 23:24N 44°27' E 037°32'42 8.1
2015-Jun-20 18:14N 44°06' E 036°41'14 8.3
2015-Jun-20 16:33N 43°59' E 036°24'9 8.4
2015-Jun-20 15:31N 43°55' E 036°14'9 8.4
2015-Jun-20 14:29N 43°50' E 036°03'10 8.6
2015-Jun-20 13:21N 43°46' E 035°51'10 8.8
2015-Jun-20 12:16N 43°41' E 035°40'  
Track history (hours):
 
Tides and Currents Weather Stations Pressure Air Temp Water Temp Dewpoint Dewpoint Depression Visibility Wind Speed Wind Dir Waves Ship Positions

Amr R

Last reported at 2015-Jun-28 18:34 UTC. Time now 2015-Jul-31 21:29 UTC.
Position N 36°44' E 026°50'.
Warning: this ship's position is 33 days out of date.

Length 130 m; draft 7.3 m.

Type: Cargo ship. MMSI: 514427000.

Date/timePositionNaut miles runAvg speedWind from/ knotsBaromVisibWave heightAir tempDewpointWater temp
2015-Jun-28 18:34N 36°44' E 026°50'9 8.7
2015-Jun-28 17:34N 36°52' E 026°43'9 8.6
2015-Jun-28 16:31N 36°59' E 026°37'8 8.5
2015-Jun-28 15:33N 37°05' E 026°31'9 8.5
2015-Jun-28 14:33N 37°11' E 026°23'9 8.5
2015-Jun-28 13:33N 37°17' E 026°15'17 8.3
2015-Jun-28 11:28N 37°28' E 025°58'7 8.1
2015-Jun-28 10:33N 37°34' E 025°54'277 7.3
2015-Jun-26 20:34N 41°21' E 029°20'2 1.9
2015-Jun-26 19:23N 41°22' E 029°22'246 4.9
2015-Jun-24 17:21N 43°15' E 034°18'7 8.5
2015-Jun-24 16:33N 43°18' E 034°26'10 8.5
2015-Jun-24 15:22N 43°23' E 034°38'6 7.6
2015-Jun-24 14:33N 43°27' E 034°46'10 8.2
2015-Jun-24 13:19N 43°32' E 034°58'6 8.1
2015-Jun-24 12:33N 43°35' E 035°05'8 7.9
2015-Jun-24 11:33N 43°39' E 035°14'112 8.6
2015-Jun-23 22:32N 44°30' E 037°34'8 8.5
2015-Jun-23 21:33N 44°34' E 037°44'8 7.8
2015-Jun-23 20:33N 44°40' E 037°50'4 4.0
2015-Jun-23 19:33N 44°44' E 037°47'0 0.0
2015-Jun-23 19:05N 44°44' E 037°47'0 0.0
2015-Jun-22 19:30N 44°44' E 037°47'0 0.0
2015-Jun-22 18:30N 44°44' E 037°47'0 0.0
2015-Jun-22 17:24N 44°44' E 037°47'0 0.0
2015-Jun-22 16:30N 44°44' E 037°47'0 0.0
2015-Jun-22 15:30N 44°44' E 037°47'0 0.0
2015-Jun-22 14:30N 44°44' E 037°47'0 0.0
2015-Jun-22 13:30N 44°44' E 037°47'0 0.0
2015-Jun-22 12:30N 44°44' E 037°47'0 0.0
2015-Jun-22 11:30N 44°44' E 037°47'0 0.0
2015-Jun-22 10:30N 44°44' E 037°47'0 0.0
2015-Jun-22 09:30N 44°44' E 037°47'0 0.0
2015-Jun-22 08:30N 44°44' E 037°47'0 0.0
2015-Jun-22 07:30N 44°44' E 037°47'0 0.0
2015-Jun-22 06:30N 44°44' E 037°47'0 0.0
2015-Jun-22 05:30N 44°44' E 037°47'0 0.0
2015-Jun-22 04:30N 44°44' E 037°47'0 0.0
2015-Jun-22 03:30N 44°44' E 037°47'0 0.0
2015-Jun-22 02:30N 44°44' E 037°47'0 0.0
2015-Jun-22 01:30N 44°44' E 037°47'0 0.0
2015-Jun-22 00:30N 44°44' E 037°47'0 0.0
2015-Jun-21 23:30N 44°44' E 037°47'0 0.0
2015-Jun-21 22:30N 44°44' E 037°47'0 0.0
2015-Jun-21 21:30N 44°44' E 037°47'0 0.0
2015-Jun-21 20:30N 44°44' E 037°47'0 0.0
2015-Jun-21 19:30N 44°44' E 037°47'0 0.0
2015-Jun-21 18:30N 44°44' E 037°47'0 0.0
2015-Jun-21 17:30N 44°44' E 037°47'0 0.0
2015-Jun-21 16:30N 44°44' E 037°47'0 0.0
2015-Jun-21 15:30N 44°44' E 037°47'0 0.0
2015-Jun-21 14:30N 44°44' E 037°47'0 0.0
2015-Jun-21 13:30N 44°44' E 037°47'0 0.0
2015-Jun-21 12:30N 44°44' E 037°47'0 0.0
2015-Jun-21 11:30N 44°44' E 037°47'0 0.0
2015-Jun-21 10:30N 44°44' E 037°47'0 0.0
2015-Jun-21 09:30N 44°44' E 037°47'0 0.0
2015-Jun-21 08:30N 44°44' E 037°47'3 3.1
2015-Jun-21 07:33N 44°41' E 037°49'8 7.5
2015-Jun-21 06:33N 44°34' E 037°48'8 8.4
2015-Jun-21 05:33N 44°28' E 037°39'6 5.3
2015-Jun-21 04:26N 44°24' E 037°33'0 0.3
2015-Jun-21 03:30N 44°24' E 037°33'0 0.4
2015-Jun-21 02:33N 44°24' E 037°32'1 0.5
2015-Jun-21 01:17N 44°24' E 037°31'3 1.4
2015-Jun-20 23:24N 44°27' E 037°32'42 8.1
2015-Jun-20 18:14N 44°06' E 036°41'14 8.3
2015-Jun-20 16:33N 43°59' E 036°24'9 8.4
2015-Jun-20 15:31N 43°55' E 036°14'9 8.4
2015-Jun-20 14:29N 43°50' E 036°03'10 8.6
2015-Jun-20 13:21N 43°46' E 035°51'10 8.8
2015-Jun-20 12:16N 43°41' E 035°40'  

Dump ship's entire track history